createdAt,value
2017-05-19T00:00:26.340Z,0
2017-05-19T00:01:26.324Z,0
2017-05-19T00:02:26.328Z,0
2017-05-19T00:03:26.343Z,0
2017-05-19T00:04:26.625Z,0
2017-05-19T00:05:26.581Z,0
2017-05-19T00:06:26.568Z,0
2017-05-19T00:07:26.563Z,0
2017-05-19T00:08:26.554Z,0
2017-05-19T00:09:26.540Z,0
2017-05-19T00:10:26.525Z,0
2017-05-19T00:11:25.918Z,0
2017-05-19T00:12:26.493Z,0
2017-05-19T00:13:26.500Z,0
2017-05-19T00:14:26.508Z,0
2017-05-19T00:15:26.470Z,0
2017-05-19T00:16:26.480Z,0
2017-05-19T00:17:26.460Z,0
2017-05-19T00:18:26.441Z,0
2017-05-19T00:19:26.438Z,0
2017-05-19T00:20:26.126Z,0
2017-05-19T00:21:26.419Z,0
2017-05-19T00:22:26.396Z,0
2017-05-19T00:23:26.408Z,0
2017-05-19T00:24:26.398Z,0
2017-05-19T00:25:26.062Z,0
2017-05-19T00:26:26.366Z,0
2017-05-19T00:27:26.043Z,0
2017-05-19T00:28:26.343Z,0
2017-05-19T00:29:26.329Z,0
2017-05-19T00:30:26.318Z,0
2017-05-19T00:31:25.999Z,0
2017-05-19T00:32:25.983Z,0
2017-05-19T00:33:25.983Z,0
2017-05-19T00:34:26.269Z,0
2017-05-19T00:35:25.964Z,0
2017-05-19T00:36:25.942Z,0
2017-05-19T00:37:26.238Z,0
2017-05-19T00:38:26.224Z,0
2017-05-19T00:39:26.221Z,0
2017-05-19T00:40:25.891Z,0
2017-05-19T00:41:25.889Z,0
2017-05-19T00:42:25.869Z,0
2017-05-19T00:43:25.868Z,0
2017-05-19T00:44:25.846Z,0
2017-05-19T00:45:26.144Z,0
2017-05-19T00:46:25.839Z,0
2017-05-19T00:47:25.818Z,0
2017-05-19T00:48:25.823Z,0
2017-05-19T00:49:26.102Z,0
2017-05-19T00:50:26.093Z,0
2017-05-19T00:51:26.070Z,0
2017-05-19T00:52:26.064Z,0
2017-05-19T00:53:26.065Z,0
2017-05-19T00:54:26.041Z,0
2017-05-19T00:55:26.032Z,0
2017-05-19T00:56:26.020Z,0
2017-05-19T00:57:26.015Z,0
2017-05-19T00:58:26.012Z,0
2017-05-19T00:59:25.987Z,0
2017-05-19T01:00:25.989Z,0
2017-05-19T01:01:25.959Z,0
2017-05-19T01:02:25.962Z,0
2017-05-19T01:03:25.956Z,0
2017-05-19T01:04:25.930Z,0
2017-05-19T01:05:25.923Z,0
2017-05-19T01:06:25.611Z,0
2017-05-19T01:07:25.909Z,0
2017-05-19T01:08:25.881Z,0
2017-05-19T01:09:25.890Z,0
2017-05-19T01:10:25.862Z,0
2017-05-19T01:11:25.854Z,0
2017-05-19T01:12:25.903Z,0
2017-05-19T01:13:25.836Z,0
2017-05-19T01:14:25.815Z,0
2017-05-19T01:15:25.813Z,0
2017-05-19T01:16:25.798Z,0
2017-05-19T01:17:25.185Z,0
2017-05-19T01:18:25.772Z,0
2017-05-19T01:19:25.761Z,0
2017-05-19T01:20:25.758Z,0
2017-05-19T01:21:25.450Z,0
2017-05-19T01:22:25.728Z,0
2017-05-19T01:23:25.114Z,0
2017-05-19T01:24:25.712Z,0
2017-05-19T01:25:25.701Z,0
2017-05-19T01:26:25.690Z,0
2017-05-19T01:27:25.685Z,0
2017-05-19T01:28:25.355Z,0
2017-05-19T01:29:25.663Z,0
2017-05-19T01:30:25.343Z,0
2017-05-19T01:31:25.324Z,0
2017-05-19T01:32:25.619Z,0
2017-05-19T01:33:25.308Z,0
2017-05-19T01:34:24.994Z,0
2017-05-19T01:35:25.594Z,0
2017-05-19T01:36:25.573Z,0
2017-05-19T01:37:25.566Z,0
2017-05-19T01:38:24.834Z,0
2017-05-19T01:39:24.937Z,0
2017-05-19T01:40:25.535Z,0
2017-05-19T01:41:25.220Z,0
2017-05-19T01:42:25.505Z,0
2017-05-19T01:43:25.710Z,0
2017-05-19T01:44:25.700Z,0
2017-05-19T01:45:24.873Z,0
2017-05-19T01:46:24.854Z,0
2017-05-19T01:47:25.441Z,0
2017-05-19T01:48:25.147Z,0
2017-05-19T01:49:25.142Z,0
2017-05-19T01:50:25.423Z,0
2017-05-19T01:51:25.126Z,0
2017-05-19T01:52:25.098Z,0
2017-05-19T01:53:25.391Z,0
2017-05-19T01:54:25.385Z,0
2017-05-19T01:55:25.360Z,0
2017-05-19T01:56:25.348Z,0
2017-05-19T01:57:25.330Z,0
2017-05-19T01:58:25.342Z,0
2017-05-19T01:59:25.321Z,0
2017-05-19T02:00:25.304Z,0
2017-05-19T02:01:25.288Z,0
2017-05-19T02:02:25.286Z,0
2017-05-19T02:03:25.288Z,0
2017-05-19T02:04:25.260Z,0
2017-05-19T02:05:25.243Z,0
2017-05-19T02:06:24.937Z,0
2017-05-19T02:07:25.223Z,0
2017-05-19T02:08:25.211Z,0
2017-05-19T02:09:25.196Z,0
2017-05-19T02:10:25.190Z,0
2017-05-19T02:11:25.187Z,0
2017-05-19T02:12:25.168Z,0
2017-05-19T02:13:25.149Z,0
2017-05-19T02:14:25.145Z,0
2017-05-19T02:15:25.135Z,0
2017-05-19T02:16:25.116Z,0
2017-05-19T02:17:25.109Z,0
2017-05-19T02:18:25.110Z,0
2017-05-19T02:19:25.094Z,0
2017-05-19T02:20:25.078Z,0
2017-05-19T02:21:25.075Z,0
2017-05-19T02:22:25.044Z,0
2017-05-19T02:23:25.050Z,0
2017-05-19T02:24:24.941Z,0
2017-05-19T02:25:25.034Z,0
2017-05-19T02:26:25.008Z,0
2017-05-19T02:27:25.014Z,0
2017-05-19T02:28:24.988Z,0
2017-05-19T02:29:25.188Z,0
2017-05-19T02:30:24.967Z,0
2017-05-19T02:31:24.963Z,0
2017-05-19T02:32:24.955Z,0
2017-05-19T02:33:24.938Z,0
2017-05-19T02:34:24.934Z,0
2017-05-19T02:35:24.934Z,0
2017-05-19T02:36:24.912Z,0
2017-05-19T02:37:24.592Z,0
2017-05-19T02:38:24.885Z,0
2017-05-19T02:39:24.878Z,0
2017-05-19T02:40:24.863Z,0
2017-05-19T02:41:24.849Z,0
2017-05-19T02:42:24.838Z,0
2017-05-19T02:43:24.828Z,0
2017-05-19T02:44:24.877Z,0
2017-05-19T02:45:24.490Z,0
2017-05-19T02:46:24.479Z,0
2017-05-19T02:47:24.836Z,0
2017-05-19T02:48:24.464Z,0
2017-05-19T02:49:24.764Z,0
2017-05-19T02:50:24.743Z,0
2017-05-19T02:51:24.745Z,0
2017-05-19T02:52:24.726Z,0
2017-05-19T02:53:24.412Z,0
2017-05-19T02:54:24.715Z,4
2017-05-19T02:55:24.699Z,4
2017-05-19T02:56:24.902Z,0
2017-05-19T02:57:24.879Z,0
2017-05-19T02:58:24.674Z,4
2017-05-19T02:59:24.653Z,4
2017-05-19T03:00:24.639Z,4
2017-05-19T03:01:38.546Z,8
2017-05-19T03:02:24.830Z,4
2017-05-19T03:03:24.620Z,4
2017-05-19T03:04:24.605Z,8
2017-05-19T03:05:24.604Z,8
2017-05-19T03:06:24.585Z,12
2017-05-19T03:07:24.563Z,16
2017-05-19T03:08:24.566Z,16
2017-05-19T03:09:24.551Z,20
2017-05-19T03:10:24.542Z,24
2017-05-19T03:11:24.221Z,24
2017-05-19T03:12:24.511Z,28
2017-05-19T03:13:24.509Z,32
2017-05-19T03:14:24.491Z,40
2017-05-19T03:15:24.482Z,48
2017-05-19T03:16:24.177Z,56
2017-05-19T03:17:24.449Z,64
2017-05-19T03:18:24.460Z,76
2017-05-19T03:19:24.442Z,84
2017-05-19T03:20:24.426Z,104
2017-05-19T03:21:24.422Z,120
2017-05-19T03:22:24.101Z,140
2017-05-19T03:23:24.392Z,164
2017-05-19T03:24:24.079Z,188
2017-05-19T03:25:24.364Z,212
2017-05-19T03:26:24.358Z,240
2017-05-19T03:27:24.342Z,272
2017-05-19T03:28:37.915Z,316
2017-05-19T03:29:24.328Z,348
2017-05-19T03:30:24.321Z,388
2017-05-19T03:31:24.299Z,432
2017-05-19T03:32:23.978Z,488
2017-05-19T03:33:24.510Z,536
2017-05-19T03:34:37.663Z,608
2017-05-19T03:35:23.649Z,652
2017-05-19T03:36:23.645Z,712
2017-05-19T03:37:24.228Z,772
2017-05-19T03:38:24.174Z,836
2017-05-19T03:39:24.229Z,904
2017-05-19T03:40:23.899Z,972
2017-05-19T03:41:23.895Z,1040
2017-05-19T03:42:23.576Z,1112
2017-05-19T03:43:24.164Z,1188
2017-05-19T03:44:23.867Z,1264
2017-05-19T03:45:24.157Z,1348
2017-05-19T03:46:23.578Z,1432
2017-05-19T03:47:23.837Z,1516
2017-05-19T03:48:23.821Z,1608
2017-05-19T03:49:23.811Z,1696
2017-05-19T03:50:23.805Z,1792
2017-05-19T03:51:23.836Z,1888
2017-05-19T03:52:24.093Z,2000
2017-05-19T03:53:23.766Z,2112
2017-05-19T03:54:23.752Z,2228
2017-05-19T03:55:23.444Z,2352
2017-05-19T03:56:23.793Z,2488
2017-05-19T03:57:23.717Z,2624
2017-05-19T03:58:23.748Z,2752
2017-05-19T03:59:23.702Z,2892
2017-05-19T04:00:23.698Z,3044
2017-05-19T04:01:23.983Z,3216
2017-05-19T04:02:23.978Z,3388
2017-05-19T04:03:23.649Z,3544
2017-05-19T04:04:23.632Z,3696
2017-05-19T04:05:23.525Z,3836
2017-05-19T04:06:23.610Z,3964
2017-05-19T04:07:23.911Z,4104
2017-05-19T04:08:23.887Z,4252
2017-05-19T04:09:23.876Z,4424
2017-05-19T04:10:24.083Z,4600
2017-05-19T04:11:23.861Z,4796
2017-05-19T04:12:23.560Z,4988
2017-05-19T04:13:23.246Z,5168
2017-05-19T04:14:23.878Z,5340
2017-05-19T04:15:23.719Z,5464
2017-05-19T04:16:23.193Z,5564
2017-05-19T04:17:23.481Z,5648
2017-05-19T04:18:23.480Z,5788
2017-05-19T04:19:23.775Z,5972
2017-05-19T04:20:23.813Z,6172
2017-05-19T04:21:23.736Z,6396
2017-05-19T04:22:23.739Z,6592
2017-05-19T04:23:23.425Z,6708
2017-05-19T04:24:23.718Z,6796
2017-05-19T04:25:23.685Z,6848
2017-05-19T04:26:23.683Z,6876
2017-05-19T04:27:23.675Z,6912
2017-05-19T04:28:23.659Z,6960
2017-05-19T04:29:23.355Z,7004
2017-05-19T04:30:23.639Z,7016
2017-05-19T04:31:23.620Z,6988
2017-05-19T04:32:23.614Z,7056
2017-05-19T04:33:23.598Z,7228
2017-05-19T04:34:23.599Z,7340
2017-05-19T04:35:23.282Z,7492
2017-05-19T04:36:23.576Z,8372
2017-05-19T04:37:23.553Z,9376
2017-05-19T04:38:23.541Z,9400
2017-05-19T04:39:23.541Z,9984
2017-05-19T04:40:23.222Z,11116
2017-05-19T04:41:23.204Z,12268
2017-05-19T04:42:23.497Z,10596
2017-05-19T04:43:23.491Z,8692
2017-05-19T04:44:23.184Z,8056
2017-05-19T04:45:23.472Z,7632
2017-05-19T04:46:23.453Z,7380
2017-05-19T04:47:37.078Z,7300
2017-05-19T04:48:23.430Z,7316
2017-05-19T04:49:23.424Z,7392
2017-05-19T04:50:23.423Z,7552
2017-05-19T04:51:23.416Z,7692
2017-05-19T04:52:23.092Z,7788
2017-05-19T04:53:23.371Z,7860
2017-05-19T04:54:23.070Z,8072
2017-05-19T04:55:23.361Z,8796
2017-05-19T04:56:23.341Z,9052
2017-05-19T04:57:23.342Z,9572
2017-05-19T04:58:23.024Z,10224
2017-05-19T04:59:23.306Z,10368
2017-05-19T05:00:23.003Z,10780
2017-05-19T05:01:22.990Z,11040
2017-05-19T05:02:22.990Z,11508
2017-05-19T05:03:23.316Z,12020
2017-05-19T05:04:23.280Z,12540
2017-05-19T05:05:23.262Z,12984
2017-05-19T05:06:23.253Z,13332
2017-05-19T05:07:23.235Z,13680
2017-05-19T05:08:23.222Z,14132
2017-05-19T05:09:23.217Z,14536
2017-05-19T05:10:22.900Z,15016
2017-05-19T05:11:22.891Z,15732
2017-05-19T05:12:23.170Z,16084
2017-05-19T05:13:23.171Z,16088
2017-05-19T05:14:22.851Z,16316
2017-05-19T05:15:22.834Z,16836
2017-05-19T05:16:23.134Z,17568
2017-05-19T05:17:23.327Z,18688
2017-05-19T05:18:23.113Z,19456
2017-05-19T05:19:23.094Z,18528
2017-05-19T05:20:23.092Z,17376
2017-05-19T05:21:23.078Z,16528
2017-05-19T05:22:23.268Z,15996
2017-05-19T05:23:23.260Z,15660
2017-05-19T05:24:23.050Z,15544
2017-05-19T05:25:23.031Z,16056
2017-05-19T05:26:23.020Z,16444
2017-05-19T05:27:23.027Z,15388
2017-05-19T05:28:23.017Z,15356
2017-05-19T05:29:22.985Z,15264
2017-05-19T05:30:22.986Z,15372
2017-05-19T05:31:22.965Z,15248
2017-05-19T05:32:22.662Z,15336
2017-05-19T05:33:22.952Z,15400
2017-05-19T05:34:22.646Z,15456
2017-05-19T05:35:22.938Z,15496
2017-05-19T05:36:22.312Z,15664
2017-05-19T05:37:22.918Z,15872
2017-05-19T05:38:22.901Z,15940
2017-05-19T05:39:22.587Z,16256
2017-05-19T05:40:22.579Z,16332
2017-05-19T05:41:22.560Z,16404
2017-05-19T05:42:22.847Z,16536
2017-05-19T05:43:22.840Z,16680
2017-05-19T05:44:22.830Z,16788
2017-05-19T05:45:22.507Z,16868
2017-05-19T05:46:22.805Z,16960
2017-05-19T05:47:22.191Z,17280
2017-05-19T05:48:22.790Z,17408
2017-05-19T05:49:22.479Z,17600
2017-05-19T05:50:22.463Z,17728
2017-05-19T05:51:22.455Z,17920
2017-05-19T05:52:22.450Z,18048
2017-05-19T05:53:22.433Z,18176
2017-05-19T05:54:22.430Z,18304
2017-05-19T05:55:22.409Z,18432
2017-05-19T05:56:22.398Z,18592
2017-05-19T05:57:22.384Z,18720
2017-05-19T05:58:22.367Z,18912
2017-05-19T05:59:22.364Z,19136
2017-05-19T06:00:22.051Z,19392
2017-05-19T06:01:22.642Z,19616
2017-05-19T06:02:22.317Z,19872
2017-05-19T06:03:22.628Z,20160
2017-05-19T06:04:22.004Z,20480
2017-05-19T06:05:22.292Z,20832
2017-05-19T06:06:22.281Z,21184
2017-05-19T06:07:22.266Z,21568
2017-05-19T06:08:21.947Z,21920
2017-05-19T06:09:22.255Z,22432
2017-05-19T06:10:22.537Z,22912
2017-05-19T06:11:22.534Z,23328
2017-05-19T06:12:22.519Z,24000
2017-05-19T06:13:22.553Z,24576
2017-05-19T06:14:22.498Z,24832
2017-05-19T06:15:22.488Z,25376
2017-05-19T06:16:22.461Z,25184
2017-05-19T06:17:22.468Z,25344
2017-05-19T06:18:22.451Z,25504
2017-05-19T06:19:22.446Z,25696
2017-05-19T06:20:22.417Z,25888
2017-05-19T06:21:22.427Z,26432
2017-05-19T06:22:22.400Z,26176
2017-05-19T06:23:21.785Z,26080
2017-05-19T06:24:22.398Z,26272
2017-05-19T06:25:21.466Z,26464
2017-05-19T06:26:22.379Z,26656
2017-05-19T06:27:22.337Z,26816
2017-05-19T06:28:22.037Z,27040
2017-05-19T06:29:21.723Z,27200
2017-05-19T06:30:21.710Z,27264
2017-05-19T06:31:21.693Z,27488
2017-05-19T06:32:21.688Z,27968
2017-05-19T06:33:21.686Z,28320
2017-05-19T06:34:21.358Z,28416
2017-05-19T06:35:21.665Z,28608
2017-05-19T06:36:21.941Z,28384
2017-05-19T06:37:22.238Z,28352
2017-05-19T06:38:21.934Z,28544
2017-05-19T06:39:22.225Z,28768
2017-05-19T06:40:22.214Z,29248
2017-05-19T06:41:22.194Z,29568
2017-05-19T06:42:21.876Z,29696
2017-05-19T06:43:22.178Z,29888
2017-05-19T06:44:22.171Z,30208
2017-05-19T06:45:21.544Z,30304
2017-05-19T06:46:21.549Z,30368
2017-05-19T06:47:21.826Z,30560
2017-05-19T06:48:21.831Z,31328
2017-05-19T06:49:21.507Z,31584
2017-05-19T06:50:21.793Z,31328
2017-05-19T06:51:21.786Z,31104
2017-05-19T06:52:22.077Z,31136
2017-05-19T06:53:21.771Z,31520
2017-05-19T06:54:21.752Z,32320
2017-05-19T06:55:21.451Z,32096
2017-05-19T06:56:21.734Z,32640
2017-05-19T06:57:21.734Z,33600
2017-05-19T06:58:22.021Z,33792
2017-05-19T06:59:21.712Z,34528
2017-05-19T07:00:21.707Z,36608
2017-05-19T07:01:21.379Z,35296
2017-05-19T07:02:21.681Z,34528
2017-05-19T07:03:21.965Z,34432
2017-05-19T07:04:21.658Z,34336
2017-05-19T07:05:21.951Z,34432
2017-05-19T07:06:21.942Z,34592
2017-05-19T07:07:21.628Z,34944
2017-05-19T07:08:21.915Z,35616
2017-05-19T07:09:21.314Z,35424
2017-05-19T07:10:21.600Z,35296
2017-05-19T07:11:21.893Z,35360
2017-05-19T07:12:21.882Z,35360
2017-05-19T07:13:21.864Z,35648
2017-05-19T07:14:21.860Z,35840
2017-05-19T07:15:21.246Z,36128
2017-05-19T07:16:21.832Z,36384
2017-05-19T07:17:21.532Z,36672
2017-05-19T07:18:21.220Z,36800
2017-05-19T07:19:21.506Z,37088
2017-05-19T07:20:21.483Z,37184
2017-05-19T07:21:21.774Z,37248
2017-05-19T07:22:21.774Z,37344
2017-05-19T07:23:21.771Z,37376
2017-05-19T07:24:21.762Z,37376
2017-05-19T07:25:21.439Z,37504
2017-05-19T07:26:21.447Z,37760
2017-05-19T07:27:21.427Z,37856
2017-05-19T07:28:21.721Z,37984
2017-05-19T07:29:21.406Z,38016
2017-05-19T07:30:21.699Z,38112
2017-05-19T07:31:21.679Z,38048
2017-05-19T07:32:21.076Z,37920
2017-05-19T07:33:21.664Z,37408
2017-05-19T07:34:21.349Z,36864
2017-05-19T07:35:21.344Z,36768
2017-05-19T07:36:21.323Z,37696
2017-05-19T07:37:21.335Z,36608
2017-05-19T07:38:21.321Z,36576
2017-05-19T07:39:21.311Z,36384
2017-05-19T07:40:21.291Z,36320
2017-05-19T07:41:21.602Z,36704
2017-05-19T07:42:21.573Z,37536
2017-05-19T07:43:21.262Z,39296
2017-05-19T07:44:21.251Z,40064
2017-05-19T07:45:20.934Z,43360
2017-05-19T07:46:21.231Z,44160
2017-05-19T07:47:21.221Z,46912
2017-05-19T07:48:21.221Z,46976
2017-05-19T07:49:21.495Z,43328
2017-05-19T07:50:21.491Z,41216
2017-05-19T07:51:21.171Z,40480
2017-05-19T07:52:21.173Z,39360
2017-05-19T07:53:21.456Z,40800
2017-05-19T07:54:21.443Z,40544
2017-05-19T07:55:20.831Z,40608
2017-05-19T07:56:21.125Z,40000
2017-05-19T07:57:21.117Z,39008
2017-05-19T07:58:21.097Z,38112
2017-05-19T07:59:21.095Z,37568
2017-05-19T08:00:21.078Z,37024
2017-05-19T08:01:21.399Z,36768
2017-05-19T08:02:21.366Z,36672
2017-05-19T08:03:21.051Z,36576
2017-05-19T08:04:21.338Z,35968
2017-05-19T08:05:21.025Z,37344
2017-05-19T08:06:21.380Z,37728
2017-05-19T08:07:20.995Z,38560
2017-05-19T08:08:20.995Z,39360
2017-05-19T08:09:21.282Z,40352
2017-05-19T08:10:20.968Z,40448
2017-05-19T08:11:21.271Z,42624
2017-05-19T08:12:20.951Z,43808
2017-05-19T08:13:21.240Z,44384
2017-05-19T08:14:20.922Z,46560
2017-05-19T08:15:20.919Z,46112
2017-05-19T08:16:20.898Z,44960
2017-05-19T08:17:20.890Z,45920
2017-05-19T08:18:20.887Z,44128
2017-05-19T08:19:20.875Z,43712
2017-05-19T08:20:20.863Z,45472
2017-05-19T08:21:20.552Z,49184
2017-05-19T08:22:20.843Z,50624
2017-05-19T08:23:20.841Z,50400
2017-05-19T08:24:20.509Z,49888
2017-05-19T08:25:20.511Z,47968
2017-05-19T08:26:20.856Z,47584
2017-05-19T08:27:20.786Z,47040
2017-05-19T08:28:20.782Z,43008
2017-05-19T08:29:20.471Z,45152
2017-05-19T08:30:21.059Z,52960
2017-05-19T08:31:21.044Z,44960
2017-05-19T08:32:20.722Z,53760
2017-05-19T08:33:20.425Z,60096
2017-05-19T08:34:20.710Z,72320
2017-05-19T08:35:20.690Z,60992
2017-05-19T08:36:20.687Z,60992
2017-05-19T08:37:20.684Z,43040
2017-05-19T08:38:20.378Z,38400
2017-05-19T08:39:20.645Z,33856
2017-05-19T08:40:20.954Z,29120
2017-05-19T08:41:20.939Z,27776
2017-05-19T08:42:20.939Z,27264
2017-05-19T08:43:20.930Z,24416
2017-05-19T08:44:20.918Z,22976
2017-05-19T08:45:20.900Z,23104
2017-05-19T08:46:20.577Z,24672
2017-05-19T08:47:20.275Z,25344
2017-05-19T08:48:20.262Z,25696
2017-05-19T08:49:20.853Z,25600
2017-05-19T08:50:20.232Z,26528
2017-05-19T08:51:20.284Z,25920
2017-05-19T08:52:20.530Z,27552
2017-05-19T08:53:20.814Z,29056
2017-05-19T08:54:20.808Z,30240
2017-05-19T08:55:20.173Z,30976
2017-05-19T08:56:20.480Z,34976
2017-05-19T08:57:20.772Z,41440
2017-05-19T08:58:20.150Z,49408
2017-05-19T08:59:20.745Z,43008
2017-05-19T09:00:20.724Z,44608
2017-05-19T09:01:20.421Z,55456
2017-05-19T09:02:20.714Z,58304
2017-05-19T09:03:20.699Z,54496
2017-05-19T09:04:20.391Z,67200
2017-05-19T09:05:20.689Z,93632
2017-05-19T09:06:20.665Z,89952
2017-05-19T09:07:20.360Z,81536
2017-05-19T09:08:20.643Z,114880
2017-05-19T09:09:20.643Z,113952
2017-05-19T09:10:20.325Z,145696
2017-05-19T09:11:19.710Z,63552
2017-05-19T09:12:20.613Z,58336
2017-05-19T09:13:20.299Z,76576
2017-05-19T09:14:20.279Z,120544
2017-05-19T09:15:20.267Z,81376
2017-05-19T09:16:20.261Z,102400
2017-05-19T09:17:20.549Z,77280
2017-05-19T09:18:19.936Z,92576
2017-05-19T09:19:20.520Z,79424
2017-05-19T09:20:20.523Z,74944
2017-05-19T09:21:20.510Z,105568
2017-05-19T09:22:20.199Z,105184
2017-05-19T09:23:20.494Z,75840
2017-05-19T09:24:19.865Z,68160
2017-05-19T09:25:19.858Z,86560
2017-05-19T09:26:19.855Z,89568
2017-05-19T09:27:20.144Z,103296
2017-05-19T09:28:20.133Z,85248
2017-05-19T09:29:19.811Z,107552
2017-05-19T09:30:20.108Z,78240
2017-05-19T09:31:20.112Z,60864
2017-05-19T09:32:19.782Z,79360
2017-05-19T09:33:20.367Z,84032
2017-05-19T09:34:19.765Z,54016
2017-05-19T09:35:20.060Z,57664
2017-05-19T09:36:20.042Z,67808
2017-05-19T09:37:19.738Z,63392
2017-05-19T09:38:20.039Z,60416
2017-05-19T09:39:20.319Z,57728
2017-05-19T09:40:20.297Z,55264
2017-05-19T09:41:20.291Z,55936
2017-05-19T09:42:20.278Z,46560
2017-05-19T09:43:20.278Z,43552
2017-05-19T09:44:19.963Z,51072
2017-05-19T09:45:20.254Z,57440
2017-05-19T09:46:20.243Z,51584
2017-05-19T09:47:20.223Z,51136
2017-05-19T09:48:19.612Z,54688
2017-05-19T09:49:19.912Z,55296
2017-05-19T09:50:19.890Z,54240
2017-05-19T09:51:19.880Z,49536
2017-05-19T09:52:19.877Z,52064
2017-05-19T09:53:20.172Z,54944
2017-05-19T09:54:20.170Z,54976
2017-05-19T09:55:20.149Z,54720
2017-05-19T09:56:20.139Z,50304
2017-05-19T09:57:20.135Z,52000
2017-05-19T09:58:19.820Z,55616
2017-05-19T09:59:20.123Z,50464
2017-05-19T10:00:19.794Z,46976
2017-05-19T10:01:19.790Z,44640
2017-05-19T10:02:20.085Z,47712
2017-05-19T10:03:20.067Z,48608
2017-05-19T10:04:19.746Z,40672
2017-05-19T10:05:20.035Z,37888
2017-05-19T10:06:19.734Z,41632
2017-05-19T10:07:20.034Z,44448
2017-05-19T10:08:19.706Z,42848
2017-05-19T10:09:20.005Z,40160
2017-05-19T10:10:19.691Z,43232
2017-05-19T10:11:19.985Z,44864
2017-05-19T10:12:19.965Z,39648
2017-05-19T10:13:19.955Z,36320
2017-05-19T10:14:19.344Z,38560
2017-05-19T10:15:19.339Z,41120
2017-05-19T10:16:19.313Z,40704
2017-05-19T10:17:19.615Z,45728
2017-05-19T10:18:19.913Z,43744
2017-05-19T10:19:19.899Z,42400
2017-05-19T10:20:19.884Z,44224
2017-05-19T10:21:19.870Z,51392
2017-05-19T10:22:19.863Z,56000
2017-05-19T10:23:19.858Z,51424
2017-05-19T10:24:19.847Z,50304
2017-05-19T10:25:19.835Z,54048
2017-05-19T10:26:19.527Z,53408
2017-05-19T10:27:19.514Z,50528
2017-05-19T10:28:19.499Z,53664
2017-05-19T10:29:19.788Z,53152
2017-05-19T10:30:19.483Z,48992
2017-05-19T10:31:19.151Z,46528
2017-05-19T10:32:19.773Z,44352
2017-05-19T10:33:19.756Z,46240
2017-05-19T10:34:19.738Z,48640
2017-05-19T10:35:19.124Z,40384
2017-05-19T10:36:19.717Z,37408
2017-05-19T10:37:19.098Z,47616
2017-05-19T10:38:19.085Z,53504
2017-05-19T10:39:19.688Z,54656
2017-05-19T10:40:19.682Z,65280
2017-05-19T10:41:19.365Z,64640
2017-05-19T10:42:19.661Z,67008
2017-05-19T10:43:19.645Z,69632
2017-05-19T10:44:19.027Z,79520
2017-05-19T10:45:19.315Z,77600
2017-05-19T10:46:19.323Z,72288
2017-05-19T10:47:19.295Z,68288
2017-05-19T10:48:19.296Z,73824
2017-05-19T10:49:19.288Z,81184
2017-05-19T10:50:19.267Z,83424
2017-05-19T10:51:19.558Z,79232
2017-05-19T10:52:19.240Z,70304
2017-05-19T10:53:19.248Z,60800
2017-05-19T10:54:19.537Z,58528
2017-05-19T10:55:18.916Z,63232
2017-05-19T10:56:19.512Z,61152
2017-05-19T10:57:19.202Z,62624
2017-05-19T10:58:19.241Z,78048
2017-05-19T10:59:19.192Z,96192
2017-05-19T11:00:18.862Z,89984
2017-05-19T11:01:19.153Z,88352
2017-05-19T11:02:18.850Z,70336
2017-05-19T11:03:19.137Z,76640
2017-05-19T11:04:19.132Z,87456
2017-05-19T11:05:19.112Z,115872
2017-05-19T11:06:19.407Z,124000
2017-05-19T11:07:19.093Z,137984
2017-05-19T11:08:19.092Z,130016
2017-05-19T11:09:19.087Z,118112
2017-05-19T11:10:19.067Z,115104
2017-05-19T11:11:19.060Z,107680
2017-05-19T11:12:19.344Z,109216
2017-05-19T11:13:19.353Z,107520
2017-05-19T11:14:19.347Z,123328
2017-05-19T11:15:19.322Z,118688
2017-05-19T11:16:19.011Z,116992
2017-05-19T11:17:19.014Z,136256
2017-05-19T11:18:18.996Z,98464
2017-05-19T11:19:19.018Z,147680
2017-05-19T11:20:19.282Z,73952
2017-05-19T11:21:18.976Z,64384
2017-05-19T11:22:19.267Z,69024
2017-05-19T11:23:18.966Z,80352
2017-05-19T11:24:18.956Z,151136
2017-05-19T11:25:18.628Z,66912
2017-05-19T11:26:18.935Z,66080
2017-05-19T11:27:18.622Z,68512
2017-05-19T11:28:19.220Z,67552
2017-05-19T11:29:18.908Z,64800
2017-05-19T11:30:19.212Z,87008
2017-05-19T11:31:19.187Z,66240
2017-05-19T11:32:19.197Z,69216
2017-05-19T11:33:19.184Z,68064
2017-05-19T11:34:19.206Z,57888
2017-05-19T11:35:18.859Z,56192
2017-05-19T11:36:18.246Z,54496
2017-05-19T11:37:19.143Z,52992
2017-05-19T11:38:18.850Z,47744
2017-05-19T11:39:18.528Z,47712
2017-05-19T11:40:19.126Z,50944
2017-05-19T11:41:19.130Z,56800
2017-05-19T11:42:19.106Z,65696
2017-05-19T11:43:18.805Z,58176
2017-05-19T11:44:19.096Z,54336
2017-05-19T11:45:19.081Z,61184
2017-05-19T11:46:19.075Z,65664
2017-05-19T11:47:18.773Z,71328
2017-05-19T11:48:19.049Z,143776
2017-05-19T11:49:18.755Z,111200
2017-05-19T11:50:18.741Z,128576
2017-05-19T11:51:18.801Z,122432
2017-05-19T11:52:18.720Z,113984
2017-05-19T11:53:18.781Z,114016
2017-05-19T11:54:19.020Z,96768
2017-05-19T11:55:18.696Z,97856
2017-05-19T11:56:18.682Z,116352
2017-05-19T11:57:18.678Z,115200
2017-05-19T11:58:18.973Z,106752
2017-05-19T11:59:18.967Z,122720
2017-05-19T12:00:18.958Z,119008
2017-05-19T12:01:18.949Z,128128
2017-05-19T12:02:18.643Z,78464
2017-05-19T12:03:18.936Z,139392
2017-05-19T12:04:18.929Z,110080
2017-05-19T12:05:18.605Z,105920
2017-05-19T12:06:18.904Z,114432
2017-05-19T12:07:18.600Z,97088
2017-05-19T12:08:18.592Z,76704
2017-05-19T12:09:18.576Z,85696
2017-05-19T12:10:18.869Z,147584
2017-05-19T12:11:18.258Z,156736
2017-05-19T12:12:18.254Z,139072
2017-05-19T12:13:18.848Z,120352
2017-05-19T12:14:18.862Z,129824
2017-05-19T12:15:18.528Z,100256
2017-05-19T12:16:18.526Z,122368
2017-05-19T12:17:18.507Z,111040
2017-05-19T12:18:18.507Z,91456
2017-05-19T12:19:18.815Z,100224
2017-05-19T12:20:18.501Z,130592
2017-05-19T12:21:18.801Z,140768
2017-05-19T12:22:18.482Z,70624
2017-05-19T12:23:18.467Z,92192
2017-05-19T12:24:18.478Z,166944
2017-05-19T12:25:18.762Z,73952
2017-05-19T12:26:18.444Z,71776
2017-05-19T12:27:18.437Z,74784
2017-05-19T12:28:18.727Z,69536
2017-05-19T12:29:18.459Z,87776
2017-05-19T12:30:18.412Z,86112
2017-05-19T12:31:18.451Z,158432
2017-05-19T12:32:18.400Z,110048
2017-05-19T12:33:18.098Z,85280
2017-05-19T12:34:18.402Z,71168
2017-05-19T12:35:18.374Z,66816
2017-05-19T12:36:18.361Z,62656
2017-05-19T12:37:18.677Z,58656
2017-05-19T12:38:18.361Z,63776
2017-05-19T12:39:18.354Z,164544
2017-05-19T12:40:18.339Z,82464
2017-05-19T12:41:18.637Z,67008
2017-05-19T12:42:18.631Z,52832
2017-05-19T12:43:18.610Z,53536
2017-05-19T12:44:18.619Z,67424
2017-05-19T12:45:18.301Z,70688
2017-05-19T12:46:18.598Z,75072
2017-05-19T12:47:18.590Z,63840
2017-05-19T12:48:18.584Z,62688
2017-05-19T12:49:18.574Z,85088
2017-05-19T12:50:18.549Z,58240
2017-05-19T12:51:17.949Z,60224
2017-05-19T12:52:18.546Z,67040
2017-05-19T12:53:18.528Z,69216
2017-05-19T12:54:18.531Z,71296
2017-05-19T12:55:18.220Z,73504
2017-05-19T12:56:18.505Z,89152
2017-05-19T12:57:18.512Z,77664
2017-05-19T12:58:18.493Z,72512
2017-05-19T12:59:18.540Z,112736
2017-05-19T13:00:18.477Z,83488
2017-05-19T13:01:18.462Z,80160
2017-05-19T13:02:17.853Z,71136
2017-05-19T13:03:18.442Z,62368
2017-05-19T13:04:18.141Z,52128
2017-05-19T13:05:18.133Z,47648
2017-05-19T13:06:18.112Z,40672
2017-05-19T13:07:18.112Z,32160
2017-05-19T13:08:18.099Z,24352
2017-05-19T13:09:18.403Z,20800
2017-05-19T13:10:18.072Z,21344
2017-05-19T13:11:18.368Z,24064
2017-05-19T13:12:18.067Z,27648
2017-05-19T13:13:18.054Z,32096
2017-05-19T13:14:18.348Z,34208
2017-05-19T13:15:18.036Z,34912
2017-05-19T13:16:18.036Z,36224
2017-05-19T13:17:18.318Z,40736
2017-05-19T13:18:18.307Z,52000
2017-05-19T13:19:18.299Z,55200